• Join FlightAware (Why Join?)
  • Login
  • US Flag 
05:55AM EDT


 

Airport Tracker/Info


-or-


 

Live Flight TrackerFlight Track Log ✈ CSN6874 ✈ 17-Jan-2014 ✈ ZWKC / KCA - ZWWW / URC

Flight Track Log - Related Links

Times and Time Zones

All times are in EST time to prevent confusion due to time zone crossing. See the CSN6874 flight status page for this flight to view local times or setup timezone preferences in your user account.

Time Position Orientation Groundspeed Altitude Reporting Facility
EST Latitude Longitude Course Direction KTS MPH feet Rate Location/Type
10:35AM 42.3260 84.1669 55° Northeast  Level Estimated
10:36AM 42.3861 84.2862 56° Northeast  Level Estimated
10:37AM 42.4461 84.4057 56° Northeast  Level Estimated
10:38AM 42.5060 84.5254 56° Northeast  Level Estimated
10:39AM 42.5657 84.6453 56° Northeast  Level Estimated
10:40AM 42.6253 84.7654 56° Northeast  Level Estimated
10:41AM 42.6848 84.8858 56° Northeast  Level Estimated
10:42AM 42.7442 85.0065 56° Northeast  Level Estimated
10:43AM 42.8034 85.1273 56° Northeast  Level Estimated
10:44AM 42.8625 85.2484 56° Northeast  Level Estimated
10:45AM 42.9215 85.3697 56° Northeast  Level Estimated
10:46AM 42.9804 85.4913 56° Northeast  Level Estimated
10:47AM 43.0391 85.6130 57° Northeast  Level Estimated
10:48AM 43.0977 85.7350 57° Northeast  Level Estimated
10:49AM 43.1562 85.8573 57° Northeast  Level Estimated
10:50AM 43.2145 85.9798 57° Northeast  Level Estimated
10:51AM 43.2728 86.1025 57° Northeast  Level Estimated
10:52AM 43.3308 86.2254 57° Northeast  Level Estimated
10:53AM 43.3888 86.3486 57° Northeast  Level Estimated
10:54AM 43.4466 86.4721 57° Northeast  Level Estimated
10:55AM 43.5043 86.5957 57° Northeast  Level Estimated
10:56AM 43.5618 86.7196 57° Northeast  Level Estimated
10:57AM 43.6192 86.8437 57° Northeast  Level Estimated
10:58AM 43.6765 86.9681 57° Northeast  Level Estimated
10:59AM 43.7337 87.0927 58° Northeast  Level Estimated
11:00AM 43.7907 87.2176 58° Northeast  Level Estimated
11:01AM 43.8475 87.3426 58° Northeast  Level Estimated
11:02AM 43.9043 87.4680 58° Northeast  Level Estimated
11:03AM 43.9071 87.4742 58° Northeast  Level Estimated
11:04AM 43.9071 87.4742 144° Southeast  Level Estimated
11:05AM 43.9071 87.4742 144° Southeast  Level Estimated
11:06AM 43.9071 87.4742 144° Southeast  Level Estimated
11:07AM 43.9071 87.4742 144° Southeast  Level Estimated
11:08AM 43.9071 87.4742 144° Southeast  Level Estimated
11:09AM 43.9071 87.4742 144° Southeast  Level Estimated
11:10AM 43.9071 87.4742 144° Southeast  Level Estimated
11:11AM 43.9071 87.4742 144° Southeast  Level Estimated
11:12AM 43.9071 87.4742 144° Southeast  Level Estimated
11:13AM 43.9071 87.4742 144° Southeast  Level Estimated
11:14AM 43.9071 87.4742 144° Southeast  Level Estimated
11:15AM 43.9071 87.4742 144° Southeast  Level Estimated
11:16AM 43.9071 87.4742 144° Southeast  Level Estimated
11:17AM 43.9071 87.4742 144° Southeast  Level Estimated
11:18AM 43.9071 87.4742 144° Southeast  Level Estimated